createdAt,value
2018-03-07T10:14:26.035Z,3.27
2018-03-07T10:16:53.653Z,3.34
2018-03-07T10:19:21.209Z,3.43
2018-03-07T10:21:48.823Z,3.57
2018-03-07T10:24:16.408Z,3.50
2018-03-07T10:26:43.971Z,3.58
2018-03-07T10:29:11.558Z,3.68
2018-03-07T10:31:40.432Z,3.42
2018-03-07T10:34:08.223Z,3.40
2018-03-07T10:36:35.828Z,3.36
2018-03-07T10:39:03.449Z,3.32
2018-03-07T10:41:31.014Z,3.39
2018-03-07T10:43:59.550Z,3.51
2018-03-07T10:46:27.534Z,3.20
2018-03-07T10:48:55.197Z,3.12
2018-03-07T10:51:22.778Z,3.29
2018-03-07T10:53:50.447Z,3.48
2018-03-07T10:56:18.057Z,3.60
2018-03-07T10:58:46.497Z,3.29
2018-03-07T11:01:14.051Z,3.43
2018-03-07T11:03:41.625Z,3.68
2018-03-07T11:06:09.183Z,3.65
2018-03-07T11:08:36.764Z,3.65
2018-03-07T11:11:04.324Z,3.57
2018-03-07T11:13:31.919Z,3.50
2018-03-07T11:15:59.485Z,3.38
2018-03-07T11:18:27.324Z,3.59
2018-03-07T11:20:55.519Z,3.72
2018-03-07T11:23:23.106Z,3.62
2018-03-07T11:25:50.673Z,3.75
2018-03-07T11:28:18.330Z,3.55
2018-03-07T11:30:45.932Z,3.53
2018-03-07T11:33:13.562Z,3.56
2018-03-07T11:35:41.113Z,3.60
2018-03-07T11:38:08.678Z,3.64
2018-03-07T11:40:36.267Z,3.59
2018-03-07T11:43:03.842Z,3.70
2018-03-07T11:45:31.766Z,3.61
2018-03-07T11:47:59.357Z,3.58
2018-03-07T11:50:26.974Z,3.39
2018-03-07T11:52:54.869Z,3.50
2018-03-07T11:55:23.072Z,3.63
2018-03-07T11:57:50.696Z,3.47
2018-03-07T12:00:18.562Z,3.47
2018-03-07T12:02:48.297Z,3.49
2018-03-07T12:05:16.180Z,3.54
2018-03-07T12:07:43.741Z,3.56
2018-03-07T12:10:11.679Z,3.38
2018-03-07T12:12:39.846Z,3.54
2018-03-07T12:15:07.505Z,3.45
2018-03-07T12:17:35.649Z,3.38
2018-03-07T12:20:03.860Z,3.51
2018-03-07T12:22:32.040Z,3.45
2018-03-07T12:25:00.110Z,3.60
2018-03-07T12:27:28.082Z,3.56
2018-03-07T12:29:56.426Z,3.54
2018-03-07T12:32:24.223Z,3.58
2018-03-07T12:34:51.867Z,3.69
2018-03-07T12:37:19.449Z,3.62
2018-03-07T12:39:47.306Z,3.62
2018-03-07T12:42:14.861Z,3.76
2018-03-07T12:44:42.456Z,3.76
2018-03-07T12:47:10.709Z,3.43
2018-03-07T12:49:38.410Z,3.28
2018-03-07T12:52:06.095Z,3.37
2018-03-07T12:54:33.709Z,3.36
2018-03-07T12:57:01.785Z,3.38
2018-03-07T12:59:29.476Z,3.33
2018-03-07T13:01:57.056Z,3.47
2018-03-07T13:04:24.643Z,3.40
2018-03-07T13:06:52.959Z,3.40
2018-03-07T13:09:20.708Z,3.36
2018-03-07T13:11:48.256Z,3.26
2018-03-07T13:14:15.868Z,3.23
2018-03-07T13:16:43.691Z,3.26
2018-03-07T13:19:11.282Z,3.34
2018-03-07T13:21:38.834Z,3.34
2018-03-07T13:24:06.442Z,3.16
2018-03-07T13:26:33.992Z,3.27
2018-03-07T13:29:01.793Z,3.20
2018-03-07T13:31:29.432Z,3.21
2018-03-07T13:33:57.056Z,3.21
2018-03-07T13:36:26.903Z,3.24
2018-03-07T13:38:54.511Z,3.14
2018-03-07T13:41:22.370Z,3.02
2018-03-07T13:43:49.953Z,3.13
2018-03-07T13:46:18.233Z,3.19
2018-03-07T13:48:45.875Z,3.16
2018-03-07T13:51:13.560Z,3.05
2018-03-07T13:53:41.203Z,3.21
2018-03-07T13:56:08.787Z,3.34
2018-03-07T13:58:36.587Z,3.43
2018-03-07T14:01:04.223Z,3.39
2018-03-07T14:03:31.844Z,3.42
2018-03-07T14:05:59.422Z,3.45
2018-03-07T14:08:27.062Z,3.47
2018-03-07T14:10:54.644Z,3.41
2018-03-07T14:13:22.235Z,3.37
2018-03-07T14:15:49.831Z,3.29
2018-03-07T14:18:17.734Z,3.40
2018-03-07T14:20:45.331Z,3.21
2018-03-07T14:23:13.129Z,3.37
2018-03-07T14:25:41.040Z,3.44
2018-03-07T14:28:09.091Z,3.19
2018-03-07T14:30:36.704Z,3.33
2018-03-07T14:33:04.269Z,3.20
2018-03-07T14:35:32.016Z,3.23
2018-03-07T14:37:59.615Z,3.35
2018-03-07T14:40:27.215Z,3.31
2018-03-07T14:42:54.780Z,3.32
2018-03-07T14:45:22.689Z,3.15
2018-03-07T14:47:50.248Z,3.24
2018-03-07T14:50:17.819Z,3.26
2018-03-07T14:52:45.427Z,3.16
2018-03-07T14:55:13.093Z,3.17
2018-03-07T14:57:40.770Z,3.13
2018-03-07T15:00:09.332Z,3.15
2018-03-07T15:02:37.823Z,3.13
2018-03-07T15:05:05.781Z,3.07
2018-03-07T15:07:33.936Z,3.06
2018-03-07T15:10:01.539Z,3.01
2018-03-07T15:12:29.102Z,3.03
2018-03-07T15:14:56.673Z,3.04
2018-03-07T15:17:24.238Z,3.08
2018-03-07T15:19:51.857Z,3.06
2018-03-07T15:22:19.796Z,3.19
2018-03-07T15:24:47.368Z,3.16
2018-03-07T15:27:14.927Z,3.11
2018-03-07T15:29:42.544Z,3.07
2018-03-07T15:32:10.119Z,2.89
2018-03-07T15:34:37.945Z,2.98
2018-03-07T15:37:05.576Z,3.07
2018-03-07T15:39:33.485Z,2.98
2018-03-07T15:42:01.156Z,3.04
2018-03-07T15:44:28.731Z,3.05
2018-03-07T15:46:56.309Z,3.13
2018-03-07T15:49:23.939Z,3.16
2018-03-07T15:51:51.539Z,3.08
2018-03-07T15:54:19.102Z,3.09
2018-03-07T15:56:46.712Z,3.08
2018-03-07T15:59:14.273Z,3.01
2018-03-07T16:01:41.852Z,3.16
2018-03-07T16:04:09.413Z,3.16
2018-03-07T16:06:37.009Z,3.08
2018-03-07T16:09:04.606Z,3.06
2018-03-07T16:11:32.761Z,3.06
2018-03-07T16:14:00.322Z,3.19
2018-03-07T16:16:27.880Z,3.16
2018-03-07T16:18:55.461Z,3.18
2018-03-07T16:21:23.032Z,3.18
2018-03-07T16:23:50.631Z,3.20
2018-03-07T16:26:18.562Z,3.18
2018-03-07T16:28:46.174Z,3.09
2018-03-07T16:31:13.887Z,3.02
2018-03-07T16:33:41.453Z,2.93
2018-03-07T16:36:09.037Z,2.93
2018-03-07T16:38:36.678Z,3.00
2018-03-07T16:41:04.255Z,2.97
2018-03-07T16:43:31.818Z,2.93
2018-03-07T16:46:00.092Z,2.99
2018-03-07T16:48:27.659Z,2.99
2018-03-07T16:50:55.251Z,2.97
2018-03-07T16:53:22.816Z,3.03
2018-03-07T16:55:51.185Z,2.93
2018-03-07T16:58:18.782Z,3.03
2018-03-07T17:00:46.338Z,3.12
2018-03-07T17:03:13.925Z,3.16
2018-03-07T17:05:41.485Z,3.20
2018-03-07T17:08:09.069Z,3.24
2018-03-07T17:10:36.913Z,3.32
2018-03-07T17:13:04.780Z,3.38
2018-03-07T17:15:32.393Z,3.33
2018-03-07T17:17:59.987Z,3.31
2018-03-07T17:20:27.534Z,3.22
2018-03-07T17:22:55.096Z,3.19
2018-03-07T17:25:22.813Z,3.15
2018-03-07T17:27:50.483Z,3.17
2018-03-07T17:30:18.045Z,3.13
2018-03-07T17:32:45.631Z,2.93
2018-03-07T17:35:13.191Z,3.00
2018-03-07T17:37:41.449Z,3.05
2018-03-07T17:40:09.028Z,3.10
2018-03-07T17:42:36.640Z,3.07
2018-03-07T17:45:05.321Z,3.11
2018-03-07T17:47:32.896Z,3.17
2018-03-07T17:50:00.463Z,3.18
2018-03-07T17:52:28.209Z,3.29
2018-03-07T17:54:56.069Z,3.22
2018-03-07T17:57:23.715Z,3.24
2018-03-07T17:59:51.403Z,3.26
2018-03-07T18:02:18.983Z,3.18
2018-03-07T18:04:46.632Z,3.22
2018-03-07T18:07:14.327Z,3.22
2018-03-07T18:09:41.953Z,3.20
2018-03-07T18:12:09.527Z,3.29
2018-03-07T18:14:37.084Z,3.28
2018-03-07T18:17:04.656Z,3.37
2018-03-07T18:19:32.207Z,3.30
2018-03-07T18:22:00.017Z,3.33
2018-03-07T18:24:27.752Z,3.33
2018-03-07T18:26:55.332Z,3.25
2018-03-07T18:29:22.903Z,3.28
2018-03-07T18:31:50.618Z,3.22
2018-03-07T18:34:18.208Z,3.21
2018-03-07T18:36:45.828Z,3.16
2018-03-07T18:39:13.796Z,3.19
2018-03-07T18:41:41.377Z,3.18
2018-03-07T18:44:09.067Z,3.19
2018-03-07T18:46:36.655Z,3.20
2018-03-07T18:49:04.362Z,3.20
2018-03-07T18:51:31.927Z,3.18
2018-03-07T18:53:59.529Z,3.24
2018-03-07T18:56:27.107Z,3.29
2018-03-07T18:58:54.723Z,3.27
2018-03-07T19:01:23.089Z,3.26
2018-03-07T19:03:57.913Z,3.30
2018-03-07T19:06:27.304Z,3.35
2018-03-07T19:09:07.419Z,3.37
2018-03-07T19:11:36.195Z,3.41
2018-03-07T19:14:04.445Z,3.42
2018-03-07T19:16:32.019Z,3.46
2018-03-07T19:18:59.638Z,3.48
2018-03-07T19:21:27.185Z,3.53
2018-03-07T19:23:54.845Z,3.55
2018-03-07T19:26:22.398Z,3.58
2018-03-07T19:28:50.314Z,3.61
2018-03-07T19:31:17.897Z,3.28
2018-03-07T19:33:45.465Z,3.30
2018-03-07T19:36:13.038Z,3.21
2018-03-07T19:38:40.625Z,3.26
2018-03-07T19:41:08.948Z,3.33
2018-03-07T19:43:36.587Z,3.35
2018-03-07T19:46:04.152Z,3.45
2018-03-07T19:48:32.398Z,3.39
2018-03-07T19:51:00.127Z,3.35
2018-03-07T19:53:27.720Z,3.23
2018-03-07T19:55:55.630Z,3.29
2018-03-07T19:58:23.212Z,3.27
2018-03-07T20:00:50.787Z,3.26
2018-03-07T20:03:18.364Z,3.23
2018-03-07T20:05:45.974Z,3.25
2018-03-07T20:08:13.618Z,3.33
2018-03-07T20:10:41.186Z,3.34
2018-03-07T20:13:08.766Z,3.33
2018-03-07T20:15:37.215Z,3.45
2018-03-07T20:18:05.210Z,3.46
2018-03-07T20:20:32.774Z,3.46
2018-03-07T20:23:00.353Z,3.46
2018-03-07T20:25:28.001Z,3.36
2018-03-07T20:27:55.627Z,3.43
2018-03-07T20:30:23.244Z,3.40
2018-03-07T20:32:51.019Z,3.34
2018-03-07T20:35:19.568Z,3.39
2018-03-07T20:37:47.216Z,3.19
2018-03-07T20:40:15.108Z,3.28
2018-03-07T20:42:42.892Z,3.27
2018-03-07T20:45:10.575Z,3.26
2018-03-07T20:47:38.404Z,3.30
2018-03-07T20:50:06.017Z,3.34
2018-03-07T20:52:33.611Z,3.30
2018-03-07T20:55:01.247Z,3.36
2018-03-07T20:57:28.906Z,3.39
2018-03-07T20:59:56.598Z,3.41
2018-03-07T21:02:24.704Z,3.47
2018-03-07T21:04:53.166Z,3.32
2018-03-07T21:07:20.780Z,3.29
2018-03-07T21:09:48.377Z,3.38
2018-03-07T21:12:15.953Z,3.31
2018-03-07T21:14:43.627Z,3.25
2018-03-07T21:17:11.421Z,3.28
2018-03-07T21:19:39.354Z,3.26
2018-03-07T21:22:07.759Z,3.23
2018-03-07T21:24:35.384Z,3.17
2018-03-07T21:27:03.255Z,3.20
2018-03-07T21:29:30.865Z,3.20
2018-03-07T21:31:58.419Z,3.17
2018-03-07T21:34:26.033Z,3.13
2018-03-07T21:36:53.590Z,3.20
2018-03-07T21:39:21.189Z,3.19
2018-03-07T21:41:48.807Z,3.19
2018-03-07T21:44:16.462Z,3.22
2018-03-07T21:46:44.078Z,3.23
2018-03-07T21:49:11.697Z,3.28
2018-03-07T21:51:39.280Z,3.30
2018-03-07T21:54:06.877Z,3.33
2018-03-07T21:56:34.510Z,3.40
2018-03-07T21:59:02.173Z,3.50
2018-03-07T22:01:30.135Z,3.43
2018-03-07T22:03:57.941Z,3.42
2018-03-07T22:06:25.604Z,3.28
2018-03-07T22:08:53.426Z,3.28
2018-03-07T22:11:21.000Z,3.34
2018-03-07T22:13:48.640Z,3.31
2018-03-07T22:16:16.203Z,3.28
2018-03-07T22:18:43.787Z,3.24
2018-03-07T22:21:11.394Z,3.27
2018-03-07T22:23:39.080Z,3.32
2018-03-07T22:26:06.754Z,3.28
2018-03-07T22:28:34.364Z,3.33
2018-03-07T22:31:02.018Z,3.36
2018-03-07T22:33:29.651Z,3.32
2018-03-07T22:35:57.322Z,3.35
2018-03-07T22:38:24.904Z,3.33
2018-03-07T22:40:52.500Z,3.30
2018-03-07T22:43:20.120Z,3.33
2018-03-07T22:45:47.777Z,3.36
2018-03-07T22:48:15.365Z,3.39
2018-03-07T22:50:43.045Z,3.45
2018-03-07T22:53:10.642Z,3.44
2018-03-07T22:55:38.478Z,3.44
2018-03-07T22:58:06.187Z,3.39
2018-03-07T23:00:39.253Z,3.47
2018-03-07T23:03:07.076Z,3.37
2018-03-07T23:05:34.736Z,3.38
2018-03-07T23:08:02.405Z,3.40
2018-03-07T23:10:30.005Z,3.40
2018-03-07T23:12:57.572Z,3.45
2018-03-07T23:15:28.050Z,3.46
2018-03-07T23:17:55.623Z,3.51
2018-03-07T23:20:23.184Z,3.42
2018-03-07T23:22:50.784Z,3.48
2018-03-07T23:25:18.382Z,3.52
2018-03-07T23:27:46.048Z,3.56
2018-03-07T23:30:13.686Z,3.46
2018-03-07T23:32:41.238Z,3.36
2018-03-07T23:35:09.029Z,3.38
2018-03-07T23:37:36.608Z,3.32
2018-03-07T23:40:06.282Z,3.25
2018-03-07T23:42:33.948Z,3.29
2018-03-07T23:45:01.512Z,3.29
2018-03-07T23:47:29.853Z,3.08
2018-03-07T23:49:58.024Z,3.13
2018-03-07T23:52:25.605Z,3.17
2018-03-07T23:54:54.930Z,3.17
2018-03-07T23:57:22.799Z,3.21
2018-03-07T23:59:50.502Z,3.26
